Time;durP1;ratioP1;P1;durP2;ratioP2;P2;SDS_P1;SDS_P2;PMS_P1;PMS_P2;Temp;Humidity;BMP_temperature;BMP_pressure;BME280_temperature;BME280_humidity;BME280_pressure;Samples;Min_cycle;Max_cycle;Signal;HPM_P1;HPM_P2
2021/03/13 00:00:14;;;;;;;4.95;2.05;;;8.30;66.60;;;;;;2031793;28;20033;-70
2021/03/13 00:01:15;;;;;;;5.50;1.70;;;8.30;67.20;;;;;;2031712;28;20447;-73
2021/03/13 00:02:15;;;;;;;6.28;2.17;;;8.30;67.90;;;;;;2039004;29;20024;-72
2021/03/13 00:03:17;;;;;;;6.07;2.47;;;8.20;69.80;;;;;;2038564;29;20028;-73
2021/03/13 00:04:17;;;;;;;7.85;2.90;;;8.10;71.90;;;;;;2031423;29;20028;-72
2021/03/13 00:05:23;;;;;;;6.07;2.95;;;7.90;73.00;;;;;;2031341;29;20038;-73
2021/03/13 00:06:24;;;;;;;5.75;2.92;;;7.80;74.40;;;;;;2024115;28;20134;-73
2021/03/13 00:07:25;;;;;;;4.32;2.95;;;7.70;75.70;;;;;;2031308;29;20024;-73
2021/03/13 00:08:25;;;;;;;7.03;2.90;;;7.50;76.50;;;;;;2031878;29;20597;-73
2021/03/13 00:09:26;;;;;;;5.68;2.90;;;7.50;77.40;;;;;;2031904;28;20044;-72
2021/03/13 00:10:27;;;;;;;5.38;2.70;;;7.40;78.20;;;;;;2031818;29;20032;-72
2021/03/13 00:11:27;;;;;;;3.90;2.63;;;7.30;78.90;;;;;;2031593;29;20044;-73
2021/03/13 00:12:28;;;;;;;5.35;2.80;;;7.30;79.30;;;;;;2031180;28;20111;-72
2021/03/13 00:13:28;;;;;;;4.47;2.70;;;7.30;79.80;;;;;;2031065;29;20046;-73
2021/03/13 00:14:29;;;;;;;3.33;2.33;;;7.20;80.40;;;;;;2031387;28;20530;-73
2021/03/13 00:15:30;;;;;;;4.50;2.30;;;7.10;81.10;;;;;;2031348;29;20082;-72
2021/03/13 00:16:31;;;;;;;3.05;2.40;;;7.00;82.10;;;;;;2032156;29;20028;-73
2021/03/13 00:17:34;;;;;;;3.08;2.45;;;7.00;82.70;;;;;;2032067;29;20502;-72
2021/03/13 00:18:36;;;;;;;3.60;2.50;;;6.90;83.40;;;;;;2031874;28;20048;-73
2021/03/13 00:19:37;;;;;;;3.30;2.50;;;6.90;84.30;;;;;;2039595;28;20031;-73
2021/03/13 00:20:39;;;;;;;3.78;2.60;;;6.80;84.70;;;;;;2031021;29;20075;-73
2021/03/13 00:21:40;;;;;;;4.15;2.60;;;6.80;84.90;;;;;;2031788;29;20107;-72
2021/03/13 00:22:40;;;;;;;3.20;2.30;;;6.80;85.20;;;;;;2032428;28;20028;-73
2021/03/13 00:23:41;;;;;;;3.00;2.60;;;6.80;85.90;;;;;;2031979;28;20048;-72
2021/03/13 00:24:43;;;;;;;3.75;2.67;;;6.70;86.30;;;;;;2032647;28;20020;-73
2021/03/13 00:25:43;;;;;;;5.05;2.72;;;6.70;86.90;;;;;;2042211;28;20503;-73
2021/03/13 00:26:44;;;;;;;5.00;2.80;;;6.70;87.80;;;;;;2034937;29;20032;-72
2021/03/13 00:27:46;;;;;;;3.65;3.00;;;6.60;88.70;;;;;;2026204;29;20027;-71
2021/03/13 00:28:46;;;;;;;3.47;2.90;;;6.50;89.10;;;;;;2025412;28;20017;-72
2021/03/13 00:29:47;;;;;;;3.60;2.90;;;6.50;89.60;;;;;;2035350;29;20044;-72
2021/03/13 00:30:48;;;;;;;4.35;3.00;;;6.50;90.30;;;;;;2043528;29;20500;-72
2021/03/13 00:31:53;;;;;;;4.63;3.25;;;6.40;90.70;;;;;;2043236;29;20028;-73
2021/03/13 00:33:06;;;;;;;3.28;2.83;;;6.40;91.00;;;;;;2033050;29;20028;-71
2021/03/13 00:34:07;;;;;;;;;;;6.40;91.40;;;;;;2026587;29;20033;-73
2021/03/13 00:35:08;;;;;;;3.80;2.65;;;6.30;91.60;;;;;;2024688;29;20002;-72
2021/03/13 00:36:09;;;;;;;3.58;2.72;;;6.30;91.70;;;;;;2032767;29;20039;-72
2021/03/13 00:37:09;;;;;;;3.55;2.70;;;6.30;91.60;;;;;;2033229;29;20098;-72
2021/03/13 00:38:11;;;;;;;3.38;2.65;;;6.30;91.80;;;;;;2040587;28;20027;-71
2021/03/13 00:39:11;;;;;;;4.63;2.70;;;6.20;92.00;;;;;;2040395;29;20024;-71
2021/03/13 00:40:15;;;;;;;3.10;2.72;;;6.10;91.80;;;;;;2033120;28;20107;-71
2021/03/13 00:41:16;;;;;;;2.80;2.47;;;6.10;92.10;;;;;;2040187;29;20114;-72
2021/03/13 00:42:16;;;;;;;2.33;2.13;;;6.10;92.30;;;;;;2040498;29;20115;-72
2021/03/13 00:43:18;;;;;;;2.30;2.10;;;6.10;92.40;;;;;;2032607;29;20071;-72
2021/03/13 00:44:19;;;;;;;3.00;2.20;;;6.10;92.50;;;;;;2040387;28;20119;-71
2021/03/13 00:45:22;;;;;;;2.10;1.90;;;6.10;92.50;;;;;;2040019;28;20419;-71
2021/03/13 00:46:22;;;;;;;3.65;2.35;;;6.10;92.50;;;;;;2040275;29;20422;-70
2021/03/13 00:47:24;;;;;;;2.42;2.17;;;6.10;92.50;;;;;;2040347;29;20027;-71
2021/03/13 00:48:25;;;;;;;2.28;2.08;;;6.10;92.60;;;;;;2032380;28;20036;-72
2021/03/13 00:49:26;;;;;;;3.38;1.90;;;6.10;92.70;;;;;;2032444;29;20036;-73
2021/03/13 00:50:29;;;;;;;2.40;1.85;;;6.10;92.30;;;;;;2040013;28;20466;-72
2021/03/13 00:51:30;;;;;;;2.90;1.80;;;6.10;91.90;;;;;;2032242;28;20503;-72
2021/03/13 00:52:31;;;;;;;3.05;1.92;;;6.10;92.00;;;;;;2032393;29;20036;-73
2021/03/13 00:53:32;;;;;;;2.40;1.73;;;6.10;91.90;;;;;;2039687;28;20557;-72
2021/03/13 00:54:33;;;;;;;2.05;1.77;;;6.10;92.00;;;;;;2040055;29;20063;-72
2021/03/13 00:55:34;;;;;;;3.10;1.73;;;6.10;91.40;;;;;;2040138;28;20567;-73
2021/03/13 00:56:39;;;;;;;1.88;1.60;;;6.10;91.20;;;;;;2039424;28;20022;-73
2021/03/13 00:57:41;;;;;;;4.40;1.50;;;6.10;91.00;;;;;;2032897;29;20028;-72
2021/03/13 00:58:42;;;;;;;2.53;1.58;;;6.10;91.10;;;;;;2033398;29;20016;-72
2021/03/13 00:59:43;;;;;;;4.07;1.63;;;6.10;91.00;;;;;;2041106;29;20100;-73
2021/03/13 01:00:43;;;;;;;2.78;1.55;;;6.10;90.80;;;;;;2033260;28;20094;-72
2021/03/13 01:01:48;;;;;;;2.13;1.60;;;6.10;90.70;;;;;;2033135;28;20035;-72
2021/03/13 01:02:49;;;;;;;3.72;1.70;;;6.10;90.80;;;;;;2024645;29;20060;-73
2021/03/13 01:03:49;;;;;;;5.22;1.80;;;6.10;90.60;;;;;;2024431;28;20036;-72
2021/03/13 01:04:50;;;;;;;2.50;1.60;;;6.20;90.50;;;;;;2025236;29;20048;-73
2021/03/13 01:05:52;;;;;;;3.35;1.80;;;6.20;90.80;;;;;;2025291;28;20400;-73
2021/03/13 01:06:53;;;;;;;4.90;2.45;;;6.20;90.30;;;;;;2032870;28;20491;-74
2021/03/13 01:07:54;;;;;;;3.33;1.90;;;6.20;90.30;;;;;;2032860;28;20116;-72
2021/03/13 01:08:55;;;;;;;2.47;1.63;;;6.20;90.10;;;;;;2032656;28;20487;-72
2021/03/13 01:10:10;;;;;;;3.45;1.75;;;6.20;90.00;;;;;;2040283;29;20028;-73
2021/03/13 01:11:11;;;;;;;2.75;1.60;;;6.20;89.80;;;;;;2041642;28;20036;-73
2021/03/13 01:12:17;;;;;;;2.30;1.38;;;6.20;89.80;;;;;;2041011;28;20673;-73
2021/03/13 01:13:19;;;;;;;2.75;1.52;;;6.20;90.00;;;;;;2033020;28;20024;-72
2021/03/13 01:14:20;;;;;;;3.42;1.80;;;6.20;89.80;;;;;;2025830;29;20033;-74
2021/03/13 01:15:24;;;;;;;2.92;1.52;;;6.20;90.00;;;;;;2025820;29;20095;-73
2021/03/13 01:16:26;;;;;;;2.25;1.40;;;6.20;89.90;;;;;;2032689;29;20024;-73
2021/03/13 01:17:27;;;;;;;2.75;1.45;;;6.20;89.20;;;;;;2040425;29;20055;-74
2021/03/13 01:18:28;;;;;;;2.95;1.40;;;6.20;89.50;;;;;;2032264;29;20036;-73
2021/03/13 01:19:29;;;;;;;4.10;1.30;;;6.20;89.00;;;;;;2032326;29;20040;-73
2021/03/13 01:20:31;;;;;;;3.78;1.30;;;6.30;89.00;;;;;;2032563;29;20026;-73
2021/03/13 01:21:32;;;;;;;3.33;1.17;;;6.20;88.90;;;;;;2040209;29;20495;-73
2021/03/13 01:22:34;;;;;;;2.47;1.20;;;6.20;88.70;;;;;;2032352;28;20028;-73
2021/03/13 01:23:36;;;;;;;3.85;1.20;;;6.30;88.70;;;;;;2031796;29;20095;-74
2021/03/13 01:24:40;;;;;;;2.05;1.20;;;6.20;88.30;;;;;;2040182;28;20561;-73
2021/03/13 01:25:41;;;;;;;2.47;1.20;;;6.20;88.60;;;;;;2039644;29;20023;-72
2021/03/13 01:26:42;;;;;;;1.73;1.10;;;6.20;88.60;;;;;;2040248;28;20032;-73
2021/03/13 01:27:45;;;;;;;3.95;1.10;;;6.20;88.10;;;;;;2039695;28;20066;-73
2021/03/13 01:28:47;;;;;;;3.47;1.10;;;6.20;88.40;;;;;;2032361;29;20066;-72
2021/03/13 01:30:13;;;;;;;2.38;1.00;;;6.30;87.90;;;;;;2032806;29;20035;-73
2021/03/13 01:31:14;;;;;;;1.95;1.20;;;6.30;87.70;;;;;;2032755;29;20028;-73
2021/03/13 01:32:15;;;;;;;2.22;1.02;;;6.30;87.80;;;;;;2041267;28;20031;-73
2021/03/13 01:33:16;;;;;;;2.65;1.10;;;6.30;87.40;;;;;;2039777;28;20036;-73
2021/03/13 01:34:17;;;;;;;1.83;1.00;;;6.30;87.80;;;;;;2032224;29;20456;-73
2021/03/13 01:35:26;;;;;;;2.25;0.98;;;6.30;88.20;;;;;;2031946;29;20036;-71
2021/03/13 01:36:27;;;;;;;2.65;0.90;;;6.30;87.50;;;;;;2032218;28;20032;-72
2021/03/13 01:37:27;;;;;;;3.58;1.10;;;6.30;87.60;;;;;;2039796;29;20065;-71
2021/03/13 01:38:29;;;;;;;1.67;1.00;;;6.20;87.70;;;;;;2039772;29;20031;-74
2021/03/13 01:39:31;;;;;;;4.53;1.15;;;6.20;87.50;;;;;;2039912;28;20039;-73
2021/03/13 01:40:31;;;;;;;2.78;1.08;;;6.30;87.70;;;;;;2031796;28;20474;-72
2021/03/13 01:41:32;;;;;;;1.80;1.10;;;6.20;87.60;;;;;;2031217;29;20487;-71
2021/03/13 01:42:34;;;;;;;4.15;1.20;;;6.20;87.70;;;;;;2031997;29;20028;-72
2021/03/13 01:43:40;;;;;;;2.60;0.90;;;6.20;87.70;;;;;;2031607;28;20079;-73
2021/03/13 01:44:43;;;;;;;1.60;1.00;;;6.20;87.70;;;;;;2024298;29;20025;-73
2021/03/13 01:45:47;;;;;;;1.90;1.00;;;6.20;87.80;;;;;;2032240;29;20115;-73
2021/03/13 01:46:47;;;;;;;1.77;0.90;;;6.20;87.80;;;;;;2031873;29;20110;-72
2021/03/13 01:47:50;;;;;;;2.63;1.00;;;6.20;87.40;;;;;;2032110;28;20516;-74
2021/03/13 01:48:55;;;;;;;2.08;1.13;;;6.20;87.20;;;;;;2039785;28;20090;-73
2021/03/13 01:50:01;;;;;;;1.83;0.90;;;6.20;87.20;;;;;;2039855;28;20034;-70
2021/03/13 01:51:10;;;;;;;2.58;0.93;;;6.20;87.50;;;;;;2030621;29;20498;-71
2021/03/13 01:52:13;;;;;;;2.58;1.10;;;6.20;87.50;;;;;;2025767;29;20044;-71
2021/03/13 01:53:14;;;;;;;3.30;1.23;;;6.20;87.20;;;;;;2031635;28;20746;-73
2021/03/13 01:54:15;;;;;;;1.73;0.93;;;6.20;87.50;;;;;;2032081;29;20123;-71
2021/03/13 01:55:17;;;;;;;2.33;1.20;;;6.20;87.40;;;;;;2031931;28;20423;-72
2021/03/13 01:56:17;;;;;;;2.40;1.02;;;6.20;87.50;;;;;;2039748;28;20071;-72
2021/03/13 01:57:20;;;;;;;2.22;1.10;;;6.20;87.60;;;;;;2032335;28;20114;-71
2021/03/13 01:58:24;;;;;;;3.00;0.90;;;6.20;87.70;;;;;;2039861;28;20024;-72
2021/03/13 01:59:31;;;;;;;2.45;1.00;;;6.20;87.30;;;;;;2031941;29;20432;-71
2021/03/13 02:00:33;;;;;;;3.00;1.13;;;6.20;87.10;;;;;;2031880;29;20028;-72
2021/03/13 02:01:39;;;;;;;2.40;1.00;;;6.20;86.80;;;;;;2032703;29;20028;-71
2021/03/13 02:02:41;;;;;;;2.95;0.90;;;6.20;86.90;;;;;;2032087;28;20028;-71
2021/03/13 02:03:42;;;;;;;3.75;1.00;;;6.20;87.10;;;;;;2023857;28;20115;-71
2021/03/13 02:04:44;;;;;;;2.85;1.02;;;6.20;87.30;;;;;;2024626;29;20029;-71
2021/03/13 02:05:49;;;;;;;1.45;1.00;;;6.10;87.00;;;;;;2032418;29;20094;-71
2021/03/13 02:07:14;;;;;;;1.63;1.00;;;6.10;87.30;;;;;;2040114;28;20039;-75
2021/03/13 02:08:18;;;;;;;1.73;0.90;;;6.10;87.30;;;;;;2040705;28;20028;-71
2021/03/13 02:09:29;;;;;;;3.47;1.15;;;6.10;87.40;;;;;;2032400;29;20051;-72
2021/03/13 02:10:52;;;;;;;2.28;0.93;;;6.10;87.40;;;;;;2026100;29;20132;-72
2021/03/13 02:12:12;;;;;;;2.95;1.00;;;6.10;87.20;;;;;;2026907;29;20075;-72
2021/03/13 02:13:31;;;;;;;2.65;1.15;;;6.10;86.30;;;;;;2034592;28;20479;-71
2021/03/13 02:14:45;;;;;;;1.95;1.15;;;6.10;86.50;;;;;;2040725;28;20039;-72
2021/03/13 02:16:27;;;;;;;2.78;1.20;;;6.10;86.60;;;;;;2038566;29;20062;-71
2021/03/13 02:17:46;;;;;;;1.95;1.00;;;6.10;86.00;;;;;;2032837;28;20055;-71
2021/03/13 02:18:54;;;;;;;2.10;1.00;;;6.10;86.10;;;;;;2035693;28;20471;-71
2021/03/13 02:20:29;;;;;;;2.70;1.10;;;6.10;86.10;;;;;;2041409;28;20024;-71
2021/03/13 02:21:43;;;;;;;2.03;1.23;;;6.10;86.10;;;;;;2040929;28;20052;-71
2021/03/13 02:22:49;;;;;;;2.28;1.15;;;6.10;86.30;;;;;;2041368;28;20066;-71
2021/03/13 02:24:37;;;;;;;1.13;0.95;;;6.10;86.00;;;;;;2038464;29;20028;-71
2021/03/13 02:25:59;;;;;;;1.38;0.90;;;6.10;86.10;;;;;;2061829;28;20763;-70
2021/03/13 02:27:21;;;;;;;2.15;1.10;;;6.10;86.10;;;;;;2029610;29;20024;-70
2021/03/13 02:28:41;;;;;;;1.92;1.00;;;6.10;85.80;;;;;;2034390;29;20036;-70
2021/03/13 02:29:55;;;;;;;3.10;1.15;;;6.10;86.00;;;;;;2034298;28;20131;-72
2021/03/13 02:31:17;;;;;;;3.60;1.20;;;6.10;86.10;;;;;;2036459;29;20036;-73
2021/03/13 02:32:36;;;;;;;2.50;1.20;;;6.10;86.10;;;;;;2032429;28;20063;-72
2021/03/13 02:33:40;;;;;;;2.05;1.00;;;6.10;86.10;;;;;;2031730;28;20549;-71
2021/03/13 02:34:57;;;;;;;1.42;1.10;;;6.10;86.20;;;;;;2033327;28;20086;-71
2021/03/13 02:36:02;;;;;;;2.53;1.05;;;6.10;86.30;;;;;;2024425;28;20036;-71
2021/03/13 02:37:16;;;;;;;4.60;1.30;;;6.10;86.00;;;;;;2026105;29;20033;-71
2021/03/13 02:38:30;;;;;;;1.90;1.00;;;6.10;86.20;;;;;;2032716;28;20039;-73
2021/03/13 02:39:34;;;;;;;2.05;1.00;;;6.10;86.90;;;;;;2033704;29;20039;-72
2021/03/13 02:40:43;;;;;;;1.58;0.90;;;6.10;85.50;;;;;;2039938;28;20016;-71
2021/03/13 02:41:50;;;;;;;1.50;0.90;;;6.10;85.70;;;;;;2040032;28;20032;-71
2021/03/13 02:42:58;;;;;;;1.50;1.00;;;6.10;85.90;;;;;;2038769;28;20089;-71
2021/03/13 02:44:01;;;;;;;2.85;1.02;;;6.10;85.70;;;;;;2032313;29;20021;-73
2021/03/13 02:45:06;;;;;;;1.52;1.00;;;6.10;85.60;;;;;;2039013;28;20103;-71
2021/03/13 02:46:09;;;;;;;1.23;1.00;;;6.10;85.50;;;;;;2031855;29;20037;-72
2021/03/13 02:47:10;;;;;;;0.90;0.90;;;6.10;85.30;;;;;;2032124;28;20099;-72
2021/03/13 02:48:19;;;;;;;2.20;1.00;;;6.10;85.30;;;;;;2040058;28;20031;-71
2021/03/13 02:49:23;;;;;;;1.45;0.80;;;6.10;85.10;;;;;;2040333;29;20830;-73
2021/03/13 02:50:33;;;;;;;1.98;0.90;;;6.10;85.20;;;;;;2039344;28;20142;-71
2021/03/13 02:51:41;;;;;;;2.10;0.80;;;6.10;85.30;;;;;;2039443;28;20020;-71
2021/03/13 02:52:43;;;;;;;1.48;1.00;;;6.10;85.10;;;;;;2039522;28;20028;-71
2021/03/13 02:53:47;;;;;;;3.67;1.00;;;6.20;85.00;;;;;;2030945;29;20115;-71
2021/03/13 02:54:50;;;;;;;1.17;0.90;;;6.20;84.40;;;;;;2024079;28;20112;-71
2021/03/13 02:55:53;;;;;;;3.10;0.90;;;6.20;84.50;;;;;;2024284;28;20850;-72
2021/03/13 02:56:59;;;;;;;1.13;1.00;;;6.20;84.50;;;;;;2031959;28;20040;-71
2021/03/13 02:58:02;;;;;;;1.58;0.90;;;6.20;84.30;;;;;;2039204;28;20103;-73
2021/03/13 02:59:04;;;;;;;1.88;0.80;;;6.10;84.60;;;;;;2031629;28;20036;-72
2021/03/13 03:00:15;;;;;;;2.85;1.00;;;6.10;84.60;;;;;;2032261;28;20032;-71
2021/03/13 03:01:16;;;;;;;1.38;0.90;;;6.20;84.70;;;;;;2031314;29;20530;-74
2021/03/13 03:02:19;;;;;;;1.58;1.00;;;6.10;84.40;;;;;;2023962;29;20024;-72
2021/03/13 03:03:23;;;;;;;2.95;0.90;;;6.10;84.10;;;;;;2031605;29;20028;-71
2021/03/13 03:04:42;;;;;;;2.08;0.82;;;6.10;84.10;;;;;;2039541;28;20441;-70
2021/03/13 03:05:44;;;;;;;2.00;1.10;;;6.10;84.30;;;;;;2031626;29;20040;-71
2021/03/13 03:06:48;;;;;;;1.70;0.98;;;6.10;84.30;;;;;;2031585;28;20458;-70
2021/03/13 03:07:56;;;;;;;3.03;1.00;;;6.10;84.60;;;;;;2031610;29;20024;-71
2021/03/13 03:08:59;;;;;;;2.53;0.98;;;6.10;84.40;;;;;;2032569;28;20667;-71
2021/03/13 03:10:08;;;;;;;2.75;0.98;;;6.10;84.10;;;;;;2038208;28;20023;-71
2021/03/13 03:11:10;;;;;;;1.50;0.90;;;6.10;84.20;;;;;;2031332;28;20447;-72
2021/03/13 03:12:13;;;;;;;1.02;0.90;;;6.10;84.10;;;;;;2031608;28;20036;-70
2021/03/13 03:13:25;;;;;;;2.47;1.10;;;6.10;84.10;;;;;;2016743;28;20032;-71
2021/03/13 03:14:26;;;;;;;1.27;0.90;;;6.10;84.40;;;;;;2017984;29;20285;-71
2021/03/13 03:15:30;;;;;;;1.08;0.90;;;6.10;84.90;;;;;;2031326;29;20028;-70
2021/03/13 03:16:31;;;;;;;3.10;1.30;;;6.10;84.10;;;;;;2039382;28;20034;-70
2021/03/13 03:17:38;;;;;;;2.33;1.20;;;6.10;84.20;;;;;;2039213;29;20027;-71
2021/03/13 03:18:40;;;;;;;1.20;1.08;;;6.10;84.10;;;;;;2039327;29;20024;-71
2021/03/13 03:19:42;;;;;;;0.93;0.82;;;6.10;84.10;;;;;;2039338;28;20032;-71
2021/03/13 03:20:48;;;;;;;3.15;1.00;;;6.10;84.40;;;;;;2031346;28;20419;-71
2021/03/13 03:21:49;;;;;;;1.40;0.93;;;6.10;84.20;;;;;;2032986;28;20533;-71
2021/03/13 03:22:50;;;;;;;1.58;0.90;;;6.10;84.40;;;;;;2032583;28;20042;-73
2021/03/13 03:23:56;;;;;;;1.88;0.90;;;6.10;84.40;;;;;;2033337;28;20638;-74
2021/03/13 03:24:58;;;;;;;1.38;0.90;;;6.00;84.20;;;;;;2041906;28;20546;-75
2021/03/13 03:26:00;;;;;;;2.17;0.98;;;6.10;84.30;;;;;;2033494;29;20035;-71
2021/03/13 03:27:01;;;;;;;1.15;1.00;;;6.10;84.20;;;;;;2033715;29;20025;-71
2021/03/13 03:28:05;;;;;;;0.88;0.80;;;6.10;84.10;;;;;;2036655;29;20028;-73
2021/03/13 03:29:20;;;;;;;1.52;0.90;;;6.10;84.00;;;;;;2037231;29;20028;-73
2021/03/13 03:30:35;;;;;;;1.88;0.90;;;6.10;84.00;;;;;;2035785;29;20032;-72
2021/03/13 03:31:37;;;;;;;1.92;0.90;;;6.10;83.90;;;;;;2029142;29;20025;-72
2021/03/13 03:32:40;;;;;;;3.00;0.95;;;6.10;83.80;;;;;;2028490;29;20025;-73
2021/03/13 03:33:43;;;;;;;1.98;0.90;;;6.10;84.20;;;;;;2034649;29;20127;-72
2021/03/13 03:34:46;;;;;;;0.98;0.90;;;6.10;84.30;;;;;;2033608;28;20035;-71
2021/03/13 03:35:47;;;;;;;1.73;0.90;;;6.10;84.20;;;;;;2025771;29;20136;-72
2021/03/13 03:36:49;;;;;;;0.82;0.82;;;6.10;84.40;;;;;;2025842;29;20017;-70
2021/03/13 03:37:53;;;;;;;1.77;0.90;;;6.10;84.00;;;;;;2025178;28;20403;-71
2021/03/13 03:38:55;;;;;;;1.25;0.95;;;6.10;84.20;;;;;;2017307;29;20056;-71
2021/03/13 03:40:00;;;;;;;1.38;0.90;;;6.10;84.20;;;;;;2025127;29;20522;-71
2021/03/13 03:41:01;;;;;;;2.30;1.00;;;6.10;84.10;;;;;;2031257;28;20090;-71
2021/03/13 03:42:04;;;;;;;1.73;1.05;;;6.10;84.20;;;;;;2031353;28;20031;-72
2021/03/13 03:43:26;;;;;;;1.38;1.08;;;6.10;83.90;;;;;;2039213;28;20466;-72
2021/03/13 03:44:37;;;;;;;1.23;0.90;;;6.10;83.60;;;;;;2031372;29;20554;-71
2021/03/13 03:45:45;;;;;;;1.10;0.93;;;6.20;83.30;;;;;;2024831;29;20103;-71
2021/03/13 03:46:49;;;;;;;1.30;1.00;;;6.20;83.40;;;;;;2031314;29;20077;-71
2021/03/13 03:47:51;;;;;;;1.08;0.98;;;6.20;83.10;;;;;;2039060;28;20039;-70
2021/03/13 03:48:54;;;;;;;1.23;1.10;;;6.20;83.20;;;;;;2031278;29;20451;-70
2021/03/13 03:50:04;;;;;;;1.25;1.10;;;6.20;82.70;;;;;;2032574;29;20036;-71
2021/03/13 03:51:20;;;;;;;1.00;0.80;;;6.20;82.60;;;;;;2038743;28;20035;-71
2021/03/13 03:52:28;;;;;;;1.17;1.00;;;6.20;82.60;;;;;;2023573;29;20032;-71
2021/03/13 03:53:35;;;;;;;0.90;0.90;;;6.20;82.70;;;;;;2024039;29;20043;-71
2021/03/13 03:54:38;;;;;;;1.13;0.90;;;6.20;82.70;;;;;;2031956;28;20024;-71
2021/03/13 03:55:44;;;;;;;1.60;0.98;;;6.20;82.90;;;;;;2038619;28;20032;-71
2021/03/13 03:56:45;;;;;;;2.92;1.10;;;6.20;83.00;;;;;;2032142;29;20495;-70
2021/03/13 03:57:47;;;;;;;1.98;1.00;;;6.20;83.00;;;;;;2031916;29;20543;-71
2021/03/13 03:58:50;;;;;;;1.67;1.05;;;6.20;82.90;;;;;;2039232;28;20035;-71
2021/03/13 03:59:52;;;;;;;1.20;1.10;;;6.20;82.60;;;;;;2039210;28;20422;-72
2021/03/13 04:00:55;;;;;;;1.35;1.00;;;6.20;82.20;;;;;;2038604;28;20074;-71
2021/03/13 04:01:56;;;;;;;1.67;1.00;;;6.20;82.20;;;;;;2038807;29;20048;-71
2021/03/13 04:02:58;;;;;;;2.03;1.20;;;6.20;82.10;;;;;;2031188;28;20020;-71
2021/03/13 04:04:01;;;;;;;1.45;1.10;;;6.20;82.10;;;;;;2031016;29;20036;-72
2021/03/13 04:05:04;;;;;;;1.23;1.13;;;6.20;82.10;;;;;;2032518;29;20398;-74
2021/03/13 04:06:08;;;;;;;1.38;1.20;;;6.20;82.10;;;;;;2040566;29;20032;-71
2021/03/13 04:07:09;;;;;;;2.45;1.23;;;6.20;82.40;;;;;;2032590;29;20062;-71
2021/03/13 04:08:11;;;;;;;1.10;1.10;;;6.20;82.60;;;;;;2032648;29;20555;-72
2021/03/13 04:09:12;;;;;;;2.15;1.30;;;6.20;82.50;;;;;;2033292;29;20033;-72
2021/03/13 04:10:14;;;;;;;1.30;1.20;;;6.20;82.30;;;;;;2033363;29;20087;-71
2021/03/13 04:11:17;;;;;;;1.52;1.10;;;6.20;82.30;;;;;;2032830;29;20082;-71
2021/03/13 04:12:19;;;;;;;1.60;1.35;;;6.10;82.80;;;;;;2033360;29;20028;-72
2021/03/13 04:13:22;;;;;;;1.73;1.30;;;6.10;82.70;;;;;;2032115;29;20036;-71
2021/03/13 04:14:24;;;;;;;1.85;1.30;;;6.10;82.50;;;;;;2017234;28;20488;-71
2021/03/13 04:15:24;;;;;;;1.55;1.30;;;6.10;82.70;;;;;;2024712;29;20116;-71
2021/03/13 04:16:28;;;;;;;2.42;1.38;;;6.10;82.70;;;;;;2040423;28;20570;-70
2021/03/13 04:17:31;;;;;;;2.00;1.40;;;6.10;82.50;;;;;;2040078;29;20028;-71
2021/03/13 04:18:32;;;;;;;3.67;1.40;;;6.10;82.70;;;;;;2033402;29;20391;-72
2021/03/13 04:19:33;;;;;;;1.15;1.15;;;6.10;83.10;;;;;;2033153;29;20044;-72
2021/03/13 04:20:35;;;;;;;1.80;1.33;;;6.10;83.10;;;;;;2032827;29;20029;-72
2021/03/13 04:21:36;;;;;;;4.13;1.45;;;6.00;82.90;;;;;;2033047;29;20119;-72
2021/03/13 04:22:38;;;;;;;1.83;1.30;;;6.00;82.70;;;;;;2040251;28;20030;-71
2021/03/13 04:23:43;;;;;;;2.28;1.40;;;6.10;82.70;;;;;;2039753;29;20107;-71
2021/03/13 04:24:44;;;;;;;1.77;1.25;;;6.00;83.00;;;;;;2032507;29;20063;-70
2021/03/13 04:25:47;;;;;;;2.17;1.30;;;6.00;83.20;;;;;;2024738;28;20487;-72
2021/03/13 04:26:48;;;;;;;1.25;1.15;;;6.00;83.40;;;;;;2032522;29;20111;-71
2021/03/13 04:27:49;;;;;;;1.48;1.30;;;6.00;83.30;;;;;;2040312;29;20095;-71
2021/03/13 04:28:51;;;;;;;1.83;1.42;;;6.00;83.50;;;;;;2040236;29;20031;-72
2021/03/13 04:29:52;;;;;;;2.13;1.30;;;5.90;83.40;;;;;;2033031;29;20039;-71
2021/03/13 04:30:52;;;;;;;2.33;1.50;;;5.90;83.50;;;;;;2039810;28;20376;-72
2021/03/13 04:31:54;;;;;;;2.97;1.40;;;6.00;83.50;;;;;;2032315;29;20036;-72
2021/03/13 04:32:58;;;;;;;2.17;1.52;;;6.00;83.60;;;;;;2032438;29;20140;-72
2021/03/13 04:34:02;;;;;;;1.63;1.38;;;6.00;83.70;;;;;;2032611;28;20086;-71
2021/03/13 04:35:04;;;;;;;2.28;1.60;;;6.00;83.50;;;;;;2032990;29;20033;-71
2021/03/13 04:36:05;;;;;;;2.33;1.50;;;6.00;83.70;;;;;;2033091;29;20031;-72
2021/03/13 04:37:06;;;;;;;2.33;1.70;;;6.00;83.40;;;;;;2033006;29;20507;-72
2021/03/13 04:38:08;;;;;;;1.50;1.40;;;6.00;83.30;;;;;;2032133;29;20027;-72
2021/03/13 04:39:10;;;;;;;3.38;1.60;;;6.00;83.30;;;;;;2032518;29;20131;-70
2021/03/13 04:40:12;;;;;;;2.25;1.65;;;6.00;83.30;;;;;;2032991;29;20028;-71
2021/03/13 04:41:14;;;;;;;1.73;1.60;;;6.00;83.40;;;;;;2032696;29;20020;-71
2021/03/13 04:42:15;;;;;;;3.95;1.60;;;6.00;83.40;;;;;;2032927;29;20434;-71
2021/03/13 04:43:18;;;;;;;1.67;1.58;;;5.90;83.30;;;;;;2032496;29;20035;-71
2021/03/13 04:44:19;;;;;;;1.75;1.60;;;5.90;83.30;;;;;;2032350;28;20036;-71
2021/03/13 04:45:20;;;;;;;3.15;1.90;;;5.90;83.60;;;;;;2032152;28;20036;-71
2021/03/13 04:46:21;;;;;;;3.17;1.70;;;5.90;83.40;;;;;;2040026;28;20525;-71
2021/03/13 04:47:22;;;;;;;2.00;1.50;;;5.90;83.50;;;;;;2032344;29;20055;-71
2021/03/13 04:48:23;;;;;;;1.77;1.50;;;5.90;83.50;;;;;;2032907;29;20078;-70
2021/03/13 04:49:24;;;;;;;2.30;1.75;;;5.80;83.80;;;;;;2032915;29;20082;-72
2021/03/13 04:50:25;;;;;;;2.38;1.60;;;5.80;84.80;;;;;;2040319;29;20088;-71
2021/03/13 04:51:26;;;;;;;2.17;1.75;;;5.80;84.20;;;;;;2039925;29;20445;-71
2021/03/13 04:52:26;;;;;;;3.25;1.80;;;5.80;84.00;;;;;;2032970;28;20028;-70
2021/03/13 04:53:28;;;;;;;1.60;1.50;;;5.80;84.00;;;;;;2032369;29;20044;-73
2021/03/13 04:54:29;;;;;;;2.15;1.60;;;5.80;84.10;;;;;;2033019;29;20032;-72
2021/03/13 04:55:30;;;;;;;1.92;1.73;;;5.80;84.40;;;;;;2032811;29;20470;-71
2021/03/13 04:56:31;;;;;;;2.58;1.58;;;5.80;84.50;;;;;;2032951;29;20070;-71
2021/03/13 04:57:31;;;;;;;2.72;2.00;;;5.70;84.60;;;;;;2033141;29;20032;-71
2021/03/13 04:58:32;;;;;;;2.95;1.65;;;5.70;84.70;;;;;;2032386;28;20032;-72
2021/03/13 04:59:33;;;;;;;1.77;1.50;;;5.70;84.70;;;;;;2024631;29;20039;-71
2021/03/13 05:00:33;;;;;;;2.10;1.60;;;5.60;84.60;;;;;;2032147;29;20063;-74
2021/03/13 05:01:34;;;;;;;1.83;1.52;;;5.60;85.10;;;;;;2040139;29;20032;-71
2021/03/13 05:02:35;;;;;;;1.92;1.70;;;5.60;85.30;;;;;;2033112;29;20074;-71
2021/03/13 05:03:35;;;;;;;3.63;1.90;;;5.50;85.40;;;;;;2032676;29;20031;-72
2021/03/13 05:04:36;;;;;;;2.65;2.00;;;5.50;85.80;;;;;;2040299;28;20032;-71
2021/03/13 05:05:36;;;;;;;2.35;1.70;;;5.50;86.10;;;;;;2040470;29;20078;-71
2021/03/13 05:06:37;;;;;;;5.45;1.80;;;5.50;86.20;;;;;;2034108;29;20028;-70
2021/03/13 05:07:38;;;;;;;3.30;1.83;;;5.50;86.30;;;;;;2032853;28;20032;-72
2021/03/13 05:08:40;;;;;;;2.60;1.80;;;5.50;86.40;;;;;;2032934;29;20067;-71
2021/03/13 05:09:41;;;;;;;2.00;1.77;;;5.40;86.30;;;;;;2034336;29;20496;-72
2021/03/13 05:10:41;;;;;;;3.20;1.85;;;5.40;86.70;;;;;;2034190;29;20032;-71
2021/03/13 05:11:42;;;;;;;2.65;1.92;;;5.40;87.00;;;;;;2042243;28;20573;-71
2021/03/13 05:12:43;;;;;;;3.42;2.10;;;5.40;87.10;;;;;;2043337;29;20119;-71
2021/03/13 05:13:44;;;;;;;2.55;2.00;;;5.50;87.00;;;;;;2036100;29;20031;-71
2021/03/13 05:14:47;;;;;;;4.97;2.33;;;5.50;86.80;;;;;;2036400;29;20059;-71
2021/03/13 05:15:48;;;;;;;2.28;1.88;;;5.50;86.60;;;;;;2036765;29;20029;-72
2021/03/13 05:16:49;;;;;;;5.15;2.55;;;5.60;87.20;;;;;;2035317;29;20116;-71
2021/03/13 05:17:50;;;;;;;4.93;2.17;;;5.60;86.40;;;;;;2033708;29;20116;-71
2021/03/13 05:18:51;;;;;;;3.42;1.90;;;5.70;85.90;;;;;;2034634;29;20074;-72
2021/03/13 05:19:51;;;;;;;3.22;2.00;;;5.70;85.80;;;;;;2037302;29;20090;-71
2021/03/13 05:20:52;;;;;;;2.50;1.92;;;5.70;85.60;;;;;;2035904;29;20020;-71
2021/03/13 05:21:53;;;;;;;2.35;1.80;;;5.80;85.50;;;;;;2035749;29;20031;-71
2021/03/13 05:22:54;;;;;;;3.60;2.20;;;5.80;85.40;;;;;;2035269;29;20087;-72
2021/03/13 05:23:55;;;;;;;4.15;2.17;;;5.80;85.20;;;;;;2034349;29;20048;-71
2021/03/13 05:24:56;;;;;;;3.28;2.20;;;5.80;84.90;;;;;;2040882;29;20036;-71
2021/03/13 05:25:56;;;;;;;3.53;2.30;;;5.80;84.70;;;;;;2040715;29;20457;-72
2021/03/13 05:26:58;;;;;;;4.30;2.40;;;5.90;84.50;;;;;;2031866;29;20099;-71
2021/03/13 05:27:58;;;;;;;2.90;2.15;;;5.90;84.60;;;;;;2025493;29;20028;-72
2021/03/13 05:28:59;;;;;;;2.40;1.90;;;5.90;84.80;;;;;;2025569;29;20036;-70
2021/03/13 05:30:00;;;;;;;3.00;2.10;;;5.90;84.60;;;;;;2025319;29;20043;-71
2021/03/13 05:31:00;;;;;;;2.78;2.10;;;5.90;84.60;;;;;;2025081;29;20064;-72
2021/03/13 05:32:01;;;;;;;2.70;2.10;;;5.80;84.60;;;;;;2025508;29;20083;-71
2021/03/13 05:33:02;;;;;;;3.47;2.30;;;5.80;84.60;;;;;;2025201;29;20107;-71
2021/03/13 05:34:03;;;;;;;2.65;2.20;;;5.80;84.70;;;;;;2024141;29;20041;-72
2021/03/13 05:35:05;;;;;;;2.40;2.17;;;5.80;84.60;;;;;;2024728;29;20037;-73
2021/03/13 05:36:06;;;;;;;3.55;2.30;;;5.80;84.70;;;;;;2024866;29;20040;-71
2021/03/13 05:37:07;;;;;;;3.47;2.42;;;5.80;85.00;;;;;;2032190;29;20103;-71